sensor_id;sensor_type;location;lat;lon;timestamp;P1;durP1;ratioP1;P2;durP2;ratioP2
10489;SDS011;35569;48.402;10.670;2023-02-08T00:00:24;5.18;;;4.93;;
10489;SDS011;35569;48.402;10.670;2023-02-08T00:00:57;5.72;;;5.32;;
10489;SDS011;35569;48.402;10.670;2023-02-08T00:01:30;5.75;;;5.35;;
10489;SDS011;35569;48.402;10.670;2023-02-08T00:02:05;5.38;;;5.18;;
10489;SDS011;35569;48.402;10.670;2023-02-08T00:02:37;5.90;;;5.60;;
10489;SDS011;35569;48.402;10.670;2023-02-08T00:03:09;5.45;;;5.20;;
10489;SDS011;35569;48.402;10.670;2023-02-08T00:03:44;5.80;;;5.50;;
10489;SDS011;35569;48.402;10.670;2023-02-08T00:04:16;5.85;;;5.47;;
10489;SDS011;35569;48.402;10.670;2023-02-08T00:04:49;5.30;;;5.03;;
10489;SDS011;35569;48.402;10.670;2023-02-08T00:05:24;6.15;;;5.65;;
10489;SDS011;35569;48.402;10.670;2023-02-08T00:05:56;6.57;;;6.10;;
10489;SDS011;35569;48.402;10.670;2023-02-08T00:06:28;6.18;;;5.80;;
10489;SDS011;35569;48.402;10.670;2023-02-08T00:07:03;5.60;;;5.25;;
10489;SDS011;35569;48.402;10.670;2023-02-08T00:07:36;5.68;;;5.35;;
10489;SDS011;35569;48.402;10.670;2023-02-08T00:08:08;6.63;;;5.97;;
10489;SDS011;35569;48.402;10.670;2023-02-08T00:08:43;5.50;;;5.30;;
10489;SDS011;35569;48.402;10.670;2023-02-08T00:09:15;6.20;;;5.75;;
10489;SDS011;35569;48.402;10.670;2023-02-08T00:09:48;6.13;;;5.75;;
10489;SDS011;35569;48.402;10.670;2023-02-08T00:10:22;5.40;;;5.20;;
10489;SDS011;35569;48.402;10.670;2023-02-08T00:10:55;5.20;;;5.00;;
10489;SDS011;35569;48.402;10.670;2023-02-08T00:11:27;6.10;;;5.70;;
10489;SDS011;35569;48.402;10.670;2023-02-08T00:12:02;5.47;;;5.18;;
10489;SDS011;35569;48.402;10.670;2023-02-08T00:12:37;5.68;;;5.38;;
10489;SDS011;35569;48.402;10.670;2023-02-08T00:13:09;5.57;;;5.28;;
10489;SDS011;35569;48.402;10.670;2023-02-08T00:13:44;6.32;;;6.03;;
10489;SDS011;35569;48.402;10.670;2023-02-08T00:14:17;5.57;;;5.32;;
10489;SDS011;35569;48.402;10.670;2023-02-08T00:14:52;6.70;;;6.05;;
10489;SDS011;35569;48.402;10.670;2023-02-08T00:15:24;5.50;;;5.30;;
10489;SDS011;35569;48.402;10.670;2023-02-08T00:15:56;6.10;;;5.72;;
10489;SDS011;35569;48.402;10.670;2023-02-08T00:16:31;5.78;;;5.47;;
10489;SDS011;35569;48.402;10.670;2023-02-08T00:17:04;6.05;;;5.75;;
10489;SDS011;35569;48.402;10.670;2023-02-08T00:17:36;5.95;;;5.55;;
10489;SDS011;35569;48.402;10.670;2023-02-08T00:18:12;6.03;;;5.72;;
10489;SDS011;35569;48.402;10.670;2023-02-08T00:18:45;6.28;;;5.97;;
10489;SDS011;35569;48.402;10.670;2023-02-08T00:19:20;7.28;;;6.78;;
10489;SDS011;35569;48.402;10.670;2023-02-08T00:19:52;5.65;;;5.45;;
10489;SDS011;35569;48.402;10.670;2023-02-08T00:20:24;6.32;;;5.93;;
10489;SDS011;35569;48.402;10.670;2023-02-08T00:20:59;5.40;;;5.10;;
10489;SDS011;35569;48.402;10.670;2023-02-08T00:21:31;6.28;;;5.90;;
10489;SDS011;35569;48.402;10.670;2023-02-08T00:22:04;6.30;;;5.90;;
10489;SDS011;35569;48.402;10.670;2023-02-08T00:22:38;6.10;;;5.80;;
10489;SDS011;35569;48.402;10.670;2023-02-08T00:23:11;7.30;;;6.72;;
10489;SDS011;35569;48.402;10.670;2023-02-08T00:23:44;6.30;;;5.95;;
10489;SDS011;35569;48.402;10.670;2023-02-08T00:24:17;5.90;;;5.60;;
10489;SDS011;35569;48.402;10.670;2023-02-08T00:24:51;6.28;;;5.97;;
10489;SDS011;35569;48.402;10.670;2023-02-08T00:25:24;6.05;;;5.75;;
10489;SDS011;35569;48.402;10.670;2023-02-08T00:25:56;6.90;;;6.30;;
10489;SDS011;35569;48.402;10.670;2023-02-08T00:26:31;5.95;;;5.70;;
10489;SDS011;35569;48.402;10.670;2023-02-08T00:27:03;6.70;;;6.18;;
10489;SDS011;35569;48.402;10.670;2023-02-08T00:27:38;6.35;;;6.05;;
10489;SDS011;35569;48.402;10.670;2023-02-08T00:28:14;6.05;;;5.75;;
10489;SDS011;35569;48.402;10.670;2023-02-08T00:28:47;6.40;;;6.10;;
10489;SDS011;35569;48.402;10.670;2023-02-08T00:29:21;6.70;;;6.30;;
10489;SDS011;35569;48.402;10.670;2023-02-08T00:29:56;5.95;;;5.60;;
10489;SDS011;35569;48.402;10.670;2023-02-08T00:30:28;6.05;;;5.75;;
10489;SDS011;35569;48.402;10.670;2023-02-08T00:31:00;5.93;;;5.53;;
10489;SDS011;35569;48.402;10.670;2023-02-08T00:31:36;6.00;;;5.70;;
10489;SDS011;35569;48.402;10.670;2023-02-08T00:32:08;6.72;;;6.40;;
10489;SDS011;35569;48.402;10.670;2023-02-08T00:32:41;6.20;;;5.85;;
10489;SDS011;35569;48.402;10.670;2023-02-08T00:33:15;6.50;;;6.05;;
10489;SDS011;35569;48.402;10.670;2023-02-08T00:33:48;5.90;;;5.60;;
10489;SDS011;35569;48.402;10.670;2023-02-08T00:34:20;6.18;;;5.82;;
10489;SDS011;35569;48.402;10.670;2023-02-08T00:34:55;9.32;;;6.50;;
10489;SDS011;35569;48.402;10.670;2023-02-08T00:35:27;6.22;;;5.93;;
10489;SDS011;35569;48.402;10.670;2023-02-08T00:36:00;6.38;;;5.97;;
10489;SDS011;35569;48.402;10.670;2023-02-08T00:36:36;5.88;;;5.50;;
10489;SDS011;35569;48.402;10.670;2023-02-08T00:37:08;6.07;;;5.70;;
10489;SDS011;35569;48.402;10.670;2023-02-08T00:37:41;5.90;;;5.60;;
10489;SDS011;35569;48.402;10.670;2023-02-08T00:38:16;5.93;;;5.63;;
10489;SDS011;35569;48.402;10.670;2023-02-08T00:38:49;6.65;;;6.25;;
10489;SDS011;35569;48.402;10.670;2023-02-08T00:39:21;6.38;;;6.07;;
10489;SDS011;35569;48.402;10.670;2023-02-08T00:39:55;6.95;;;6.47;;
10489;SDS011;35569;48.402;10.670;2023-02-08T00:40:33;5.90;;;5.60;;
10489;SDS011;35569;48.402;10.670;2023-02-08T00:41:05;7.03;;;5.90;;
10489;SDS011;35569;48.402;10.670;2023-02-08T00:41:37;6.28;;;5.80;;
10489;SDS011;35569;48.402;10.670;2023-02-08T00:42:12;6.30;;;5.90;;
10489;SDS011;35569;48.402;10.670;2023-02-08T00:42:47;5.53;;;5.32;;
10489;SDS011;35569;48.402;10.670;2023-02-08T00:43:19;6.55;;;6.15;;
10489;SDS011;35569;48.402;10.670;2023-02-08T00:43:54;6.22;;;5.82;;
10489;SDS011;35569;48.402;10.670;2023-02-08T00:44:26;7.03;;;6.30;;
10489;SDS011;35569;48.402;10.670;2023-02-08T00:45:01;6.53;;;6.03;;
10489;SDS011;35569;48.402;10.670;2023-02-08T00:45:34;6.57;;;6.10;;
10489;SDS011;35569;48.402;10.670;2023-02-08T00:46:06;6.55;;;6.10;;
10489;SDS011;35569;48.402;10.670;2023-02-08T00:46:41;6.65;;;6.30;;
10489;SDS011;35569;48.402;10.670;2023-02-08T00:47:14;6.60;;;6.10;;
10489;SDS011;35569;48.402;10.670;2023-02-08T00:47:46;6.47;;;6.18;;
10489;SDS011;35569;48.402;10.670;2023-02-08T00:48:21;6.85;;;6.35;;
10489;SDS011;35569;48.402;10.670;2023-02-08T00:48:54;6.20;;;5.82;;
10489;SDS011;35569;48.402;10.670;2023-02-08T00:49:26;6.13;;;5.78;;
10489;SDS011;35569;48.402;10.670;2023-02-08T00:50:01;6.50;;;6.10;;
10489;SDS011;35569;48.402;10.670;2023-02-08T00:50:33;6.30;;;6.00;;
10489;SDS011;35569;48.402;10.670;2023-02-08T00:51:07;6.45;;;6.00;;
10489;SDS011;35569;48.402;10.670;2023-02-08T00:51:44;6.72;;;6.30;;
10489;SDS011;35569;48.402;10.670;2023-02-08T00:52:16;5.75;;;5.45;;
10489;SDS011;35569;48.402;10.670;2023-02-08T00:52:49;6.45;;;6.15;;
10489;SDS011;35569;48.402;10.670;2023-02-08T00:53:23;6.47;;;5.95;;
10489;SDS011;35569;48.402;10.670;2023-02-08T00:53:56;6.18;;;5.88;;
10489;SDS011;35569;48.402;10.670;2023-02-08T00:54:28;5.72;;;5.32;;
10489;SDS011;35569;48.402;10.670;2023-02-08T00:55:03;5.90;;;5.53;;
10489;SDS011;35569;48.402;10.670;2023-02-08T00:55:36;6.13;;;5.75;;
10489;SDS011;35569;48.402;10.670;2023-02-08T00:56:09;6.55;;;6.15;;
10489;SDS011;35569;48.402;10.670;2023-02-08T00:56:45;6.20;;;5.90;;
10489;SDS011;35569;48.402;10.670;2023-02-08T00:57:17;6.88;;;6.47;;
10489;SDS011;35569;48.402;10.670;2023-02-08T00:57:52;6.70;;;6.25;;
10489;SDS011;35569;48.402;10.670;2023-02-08T00:58:27;6.80;;;6.40;;
10489;SDS011;35569;48.402;10.670;2023-02-08T00:58:59;7.55;;;6.90;;
10489;SDS011;35569;48.402;10.670;2023-02-08T00:59:32;6.97;;;6.38;;
10489;SDS011;35569;48.402;10.670;2023-02-08T01:00:04;5.80;;;5.55;;
10489;SDS011;35569;48.402;10.670;2023-02-08T01:00:41;6.85;;;6.35;;
10489;SDS011;35569;48.402;10.670;2023-02-08T01:01:13;6.10;;;5.80;;
10489;SDS011;35569;48.402;10.670;2023-02-08T01:01:45;5.30;;;5.10;;
10489;SDS011;35569;48.402;10.670;2023-02-08T01:02:20;6.57;;;6.18;;
10489;SDS011;35569;48.402;10.670;2023-02-08T01:02:53;6.07;;;5.68;;
10489;SDS011;35569;48.402;10.670;2023-02-08T01:03:25;6.32;;;5.93;;
10489;SDS011;35569;48.402;10.670;2023-02-08T01:04:00;6.38;;;5.97;;
10489;SDS011;35569;48.402;10.670;2023-02-08T01:04:32;5.78;;;5.47;;
10489;SDS011;35569;48.402;10.670;2023-02-08T01:05:05;6.38;;;6.05;;
10489;SDS011;35569;48.402;10.670;2023-02-08T01:05:40;6.10;;;5.60;;
10489;SDS011;35569;48.402;10.670;2023-02-08T01:06:13;6.40;;;6.00;;
10489;SDS011;35569;48.402;10.670;2023-02-08T01:06:48;6.45;;;6.05;;
10489;SDS011;35569;48.402;10.670;2023-02-08T01:07:23;6.75;;;6.45;;
10489;SDS011;35569;48.402;10.670;2023-02-08T01:07:55;7.00;;;6.60;;
10489;SDS011;35569;48.402;10.670;2023-02-08T01:08:28;6.97;;;6.38;;
10489;SDS011;35569;48.402;10.670;2023-02-08T01:09:04;6.53;;;6.13;;
10489;SDS011;35569;48.402;10.670;2023-02-08T01:09:36;7.13;;;6.63;;
10489;SDS011;35569;48.402;10.670;2023-02-08T01:10:09;6.70;;;6.30;;
10489;SDS011;35569;48.402;10.670;2023-02-08T01:10:44;6.72;;;6.13;;
10489;SDS011;35569;48.402;10.670;2023-02-08T01:11:17;6.78;;;6.38;;
10489;SDS011;35569;48.402;10.670;2023-02-08T01:11:52;6.93;;;6.47;;
10489;SDS011;35569;48.402;10.670;2023-02-08T01:12:27;5.63;;;5.32;;
10489;SDS011;35569;48.402;10.670;2023-02-08T01:13:02;6.30;;;6.00;;
10489;SDS011;35569;48.402;10.670;2023-02-08T01:13:34;6.30;;;6.00;;
10489;SDS011;35569;48.402;10.670;2023-02-08T01:14:12;6.60;;;6.25;;
10489;SDS011;35569;48.402;10.670;2023-02-08T01:14:44;6.57;;;6.18;;
10489;SDS011;35569;48.402;10.670;2023-02-08T01:15:16;7.30;;;5.97;;
10489;SDS011;35569;48.402;10.670;2023-02-08T01:15:51;6.45;;;6.15;;
10489;SDS011;35569;48.402;10.670;2023-02-08T01:16:25;6.43;;;6.15;;
10489;SDS011;35569;48.402;10.670;2023-02-08T01:16:58;5.70;;;5.50;;
10489;SDS011;35569;48.402;10.670;2023-02-08T01:17:33;6.47;;;6.13;;
10489;SDS011;35569;48.402;10.670;2023-02-08T01:18:06;6.80;;;6.30;;
10489;SDS011;35569;48.402;10.670;2023-02-08T01:18:38;5.88;;;5.57;;
10489;SDS011;35569;48.402;10.670;2023-02-08T01:19:14;6.63;;;6.28;;
10489;SDS011;35569;48.402;10.670;2023-02-08T01:19:47;5.95;;;5.65;;
10489;SDS011;35569;48.402;10.670;2023-02-08T01:20:22;6.90;;;6.50;;
10489;SDS011;35569;48.402;10.670;2023-02-08T01:21:01;6.00;;;5.70;;
10489;SDS011;35569;48.402;10.670;2023-02-08T01:21:35;5.97;;;5.60;;
10489;SDS011;35569;48.402;10.670;2023-02-08T01:22:09;6.78;;;6.38;;
10489;SDS011;35569;48.402;10.670;2023-02-08T01:22:44;6.90;;;6.50;;
10489;SDS011;35569;48.402;10.670;2023-02-08T01:23:17;7.13;;;6.57;;
10489;SDS011;35569;48.402;10.670;2023-02-08T01:23:49;6.43;;;6.03;;
10489;SDS011;35569;48.402;10.670;2023-02-08T01:24:24;6.45;;;6.00;;
10489;SDS011;35569;48.402;10.670;2023-02-08T01:24:57;6.50;;;6.10;;
10489;SDS011;35569;48.402;10.670;2023-02-08T01:25:29;6.18;;;5.85;;
10489;SDS011;35569;48.402;10.670;2023-02-08T01:26:04;7.15;;;6.75;;
10489;SDS011;35569;48.402;10.670;2023-02-08T01:26:38;7.05;;;6.65;;
10489;SDS011;35569;48.402;10.670;2023-02-08T01:27:10;6.32;;;6.03;;
10489;SDS011;35569;48.402;10.670;2023-02-08T01:27:45;6.72;;;6.30;;
10489;SDS011;35569;48.402;10.670;2023-02-08T01:28:20;6.63;;;6.22;;
10489;SDS011;35569;48.402;10.670;2023-02-08T01:28:53;7.20;;;6.75;;
10489;SDS011;35569;48.402;10.670;2023-02-08T01:29:28;6.70;;;6.30;;
10489;SDS011;35569;48.402;10.670;2023-02-08T01:30:00;6.97;;;6.50;;
10489;SDS011;35569;48.402;10.670;2023-02-08T01:30:33;6.90;;;6.50;;
10489;SDS011;35569;48.402;10.670;2023-02-08T01:31:08;8.85;;;7.00;;
10489;SDS011;35569;48.402;10.670;2023-02-08T01:31:44;7.00;;;6.60;;
10489;SDS011;35569;48.402;10.670;2023-02-08T01:32:19;6.40;;;6.10;;
10489;SDS011;35569;48.402;10.670;2023-02-08T01:32:52;6.90;;;6.50;;
10489;SDS011;35569;48.402;10.670;2023-02-08T01:33:24;6.70;;;6.40;;
10489;SDS011;35569;48.402;10.670;2023-02-08T01:33:59;6.65;;;6.25;;
10489;SDS011;35569;48.402;10.670;2023-02-08T01:34:32;7.55;;;7.05;;
10489;SDS011;35569;48.402;10.670;2023-02-08T01:35:04;7.18;;;6.63;;
10489;SDS011;35569;48.402;10.670;2023-02-08T01:35:41;6.63;;;6.28;;
10489;SDS011;35569;48.402;10.670;2023-02-08T01:36:13;6.30;;;5.90;;
10489;SDS011;35569;48.402;10.670;2023-02-08T01:36:46;6.88;;;6.50;;
10489;SDS011;35569;48.402;10.670;2023-02-08T01:37:21;6.50;;;6.05;;
10489;SDS011;35569;48.402;10.670;2023-02-08T01:37:54;7.07;;;6.68;;
10489;SDS011;35569;48.402;10.670;2023-02-08T01:38:26;7.30;;;6.70;;
10489;SDS011;35569;48.402;10.670;2023-02-08T01:38:58;6.30;;;6.00;;
10489;SDS011;35569;48.402;10.670;2023-02-08T01:39:33;7.07;;;6.60;;
10489;SDS011;35569;48.402;10.670;2023-02-08T01:40:06;6.45;;;6.15;;
10489;SDS011;35569;48.402;10.670;2023-02-08T01:40:39;5.72;;;5.53;;
10489;SDS011;35569;48.402;10.670;2023-02-08T01:41:15;6.72;;;6.32;;
10489;SDS011;35569;48.402;10.670;2023-02-08T01:41:48;6.90;;;6.50;;
10489;SDS011;35569;48.402;10.670;2023-02-08T01:42:23;7.55;;;7.05;;
10489;SDS011;35569;48.402;10.670;2023-02-08T01:42:57;6.32;;;6.03;;
10489;SDS011;35569;48.402;10.670;2023-02-08T01:43:32;7.57;;;6.80;;
10489;SDS011;35569;48.402;10.670;2023-02-08T01:46:01;6.00;;;5.70;;
10489;SDS011;35569;48.402;10.670;2023-02-08T01:46:34;6.90;;;6.50;;
10489;SDS011;35569;48.402;10.670;2023-02-08T01:47:08;6.80;;;6.30;;
10489;SDS011;35569;48.402;10.670;2023-02-08T01:47:43;7.32;;;6.93;;
10489;SDS011;35569;48.402;10.670;2023-02-08T01:48:16;6.60;;;6.20;;
10489;SDS011;35569;48.402;10.670;2023-02-08T01:48:53;7.32;;;6.82;;
10489;SDS011;35569;48.402;10.670;2023-02-08T01:49:27;8.07;;;6.85;;
10489;SDS011;35569;48.402;10.670;2023-02-08T01:50:00;6.95;;;6.65;;
10489;SDS011;35569;48.402;10.670;2023-02-08T01:50:34;6.05;;;5.63;;
10489;SDS011;35569;48.402;10.670;2023-02-08T01:51:13;7.03;;;6.63;;
10489;SDS011;35569;48.402;10.670;2023-02-08T01:51:48;6.47;;;6.18;;
10489;SDS011;35569;48.402;10.670;2023-02-08T01:52:25;7.40;;;6.90;;
10489;SDS011;35569;48.402;10.670;2023-02-08T01:53:00;6.57;;;6.18;;
10489;SDS011;35569;48.402;10.670;2023-02-08T01:53:33;6.70;;;6.32;;
10489;SDS011;35569;48.402;10.670;2023-02-08T01:54:09;6.93;;;6.43;;
10489;SDS011;35569;48.402;10.670;2023-02-08T01:54:43;6.43;;;6.13;;
10489;SDS011;35569;48.402;10.670;2023-02-08T01:55:22;6.70;;;6.30;;
10489;SDS011;35569;48.402;10.670;2023-02-08T01:56:00;7.22;;;6.72;;
10489;SDS011;35569;48.402;10.670;2023-02-08T01:56:34;6.50;;;6.20;;
10489;SDS011;35569;48.402;10.670;2023-02-08T01:57:08;6.80;;;6.25;;
10489;SDS011;35569;48.402;10.670;2023-02-08T01:57:43;6.97;;;6.38;;
10489;SDS011;35569;48.402;10.670;2023-02-08T01:58:16;7.03;;;6.60;;
10489;SDS011;35569;48.402;10.670;2023-02-08T01:58:55;6.47;;;6.10;;
10489;SDS011;35569;48.402;10.670;2023-02-08T01:59:30;7.00;;;6.60;;
10489;SDS011;35569;48.402;10.670;2023-02-08T02:00:07;6.63;;;6.22;;
10489;SDS011;35569;48.402;10.670;2023-02-08T02:00:46;8.48;;;7.65;;
10489;SDS011;35569;48.402;10.670;2023-02-08T02:01:19;6.75;;;6.35;;
10489;SDS011;35569;48.402;10.670;2023-02-08T02:01:51;7.35;;;6.85;;
10489;SDS011;35569;48.402;10.670;2023-02-08T02:02:27;7.05;;;6.55;;
10489;SDS011;35569;48.402;10.670;2023-02-08T02:03:00;7.82;;;6.88;;
10489;SDS011;35569;48.402;10.670;2023-02-08T02:03:33;8.88;;;6.90;;
10489;SDS011;35569;48.402;10.670;2023-02-08T02:04:08;7.18;;;6.70;;
10489;SDS011;35569;48.402;10.670;2023-02-08T02:04:40;8.05;;;7.20;;
10489;SDS011;35569;48.402;10.670;2023-02-08T02:05:12;7.30;;;6.78;;
10489;SDS011;35569;48.402;10.670;2023-02-08T02:05:46;7.38;;;6.88;;
10489;SDS011;35569;48.402;10.670;2023-02-08T02:06:23;6.90;;;6.40;;
10489;SDS011;35569;48.402;10.670;2023-02-08T02:06:57;6.82;;;6.43;;
10489;SDS011;35569;48.402;10.670;2023-02-08T02:07:30;6.38;;;6.07;;
10489;SDS011;35569;48.402;10.670;2023-02-08T02:08:03;7.15;;;6.65;;
10489;SDS011;35569;48.402;10.670;2023-02-08T02:08:39;7.30;;;6.80;;
10489;SDS011;35569;48.402;10.670;2023-02-08T02:09:27;7.22;;;6.70;;
10489;SDS011;35569;48.402;10.670;2023-02-08T02:10:07;6.78;;;6.47;;
10489;SDS011;35569;48.402;10.670;2023-02-08T02:10:41;7.07;;;6.57;;
10489;SDS011;35569;48.402;10.670;2023-02-08T02:11:14;7.03;;;6.55;;
10489;SDS011;35569;48.402;10.670;2023-02-08T02:11:49;7.20;;;6.70;;
10489;SDS011;35569;48.402;10.670;2023-02-08T02:12:22;6.82;;;6.43;;
10489;SDS011;35569;48.402;10.670;2023-02-08T02:12:56;7.10;;;6.70;;
10489;SDS011;35569;48.402;10.670;2023-02-08T02:13:36;7.10;;;6.70;;
10489;SDS011;35569;48.402;10.670;2023-02-08T02:14:11;7.28;;;6.88;;
10489;SDS011;35569;48.402;10.670;2023-02-08T02:14:44;7.93;;;7.32;;
10489;SDS011;35569;48.402;10.670;2023-02-08T02:15:19;7.63;;;7.13;;
10489;SDS011;35569;48.402;10.670;2023-02-08T02:15:51;7.85;;;7.25;;
10489;SDS011;35569;48.402;10.670;2023-02-08T02:16:24;7.03;;;6.63;;
10489;SDS011;35569;48.402;10.670;2023-02-08T02:17:00;7.13;;;6.63;;
10489;SDS011;35569;48.402;10.670;2023-02-08T02:17:32;8.13;;;7.53;;
10489;SDS011;35569;48.402;10.670;2023-02-08T02:18:05;6.88;;;6.47;;
10489;SDS011;35569;48.402;10.670;2023-02-08T02:18:41;7.88;;;7.22;;
10489;SDS011;35569;48.402;10.670;2023-02-08T02:19:14;8.00;;;7.32;;
10489;SDS011;35569;48.402;10.670;2023-02-08T02:19:56;6.85;;;6.47;;
10489;SDS011;35569;48.402;10.670;2023-02-08T02:20:45;7.03;;;6.65;;
10489;SDS011;35569;48.402;10.670;2023-02-08T02:21:30;7.35;;;6.85;;
10489;SDS011;35569;48.402;10.670;2023-02-08T02:22:14;7.20;;;6.80;;
10489;SDS011;35569;48.402;10.670;2023-02-08T02:24:22;6.70;;;6.25;;
10489;SDS011;35569;48.402;10.670;2023-02-08T02:25:33;7.05;;;6.65;;
10489;SDS011;35569;48.402;10.670;2023-02-08T02:26:20;7.82;;;7.15;;
10489;SDS011;35569;48.402;10.670;2023-02-08T02:27:08;6.78;;;6.45;;
10489;SDS011;35569;48.402;10.670;2023-02-08T02:28:56;6.75;;;6.35;;
10489;SDS011;35569;48.402;10.670;2023-02-08T02:31:07;6.85;;;6.35;;
10489;SDS011;35569;48.402;10.670;2023-02-08T02:32:04;7.80;;;7.30;;
10489;SDS011;35569;48.402;10.670;2023-02-08T02:32:49;8.05;;;7.32;;
10489;SDS011;35569;48.402;10.670;2023-02-08T02:33:33;7.50;;;7.10;;
10489;SDS011;35569;48.402;10.670;2023-02-08T02:34:10;7.57;;;7.07;;
10489;SDS011;35569;48.402;10.670;2023-02-08T02:34:49;7.97;;;7.28;;
10489;SDS011;35569;48.402;10.670;2023-02-08T02:35:25;7.20;;;6.80;;
10489;SDS011;35569;48.402;10.670;2023-02-08T02:36:01;8.13;;;7.63;;
10489;SDS011;35569;48.402;10.670;2023-02-08T02:36:41;7.43;;;6.80;;
10489;SDS011;35569;48.402;10.670;2023-02-08T02:37:20;7.32;;;6.85;;
10489;SDS011;35569;48.402;10.670;2023-02-08T02:38:04;6.90;;;6.50;;
10489;SDS011;35569;48.402;10.670;2023-02-08T02:38:46;8.18;;;7.47;;
10489;SDS011;35569;48.402;10.670;2023-02-08T02:39:24;7.88;;;7.35;;
10489;SDS011;35569;48.402;10.670;2023-02-08T02:40:02;8.27;;;7.78;;
10489;SDS011;35569;48.402;10.670;2023-02-08T02:40:46;6.90;;;6.50;;
10489;SDS011;35569;48.402;10.670;2023-02-08T02:41:23;7.75;;;7.15;;
10489;SDS011;35569;48.402;10.670;2023-02-08T02:42:16;8.07;;;7.47;;
10489;SDS011;35569;48.402;10.670;2023-02-08T02:43:10;7.50;;;7.00;;
10489;SDS011;35569;48.402;10.670;2023-02-08T02:44:00;7.22;;;6.72;;
10489;SDS011;35569;48.402;10.670;2023-02-08T02:44:35;7.15;;;6.75;;
10489;SDS011;35569;48.402;10.670;2023-02-08T02:45:12;7.88;;;7.35;;
10489;SDS011;35569;48.402;10.670;2023-02-08T02:45:51;8.65;;;7.97;;
10489;SDS011;35569;48.402;10.670;2023-02-08T02:46:34;8.20;;;7.65;;
10489;SDS011;35569;48.402;10.670;2023-02-08T02:47:12;8.05;;;7.45;;
10489;SDS011;35569;48.402;10.670;2023-02-08T02:47:49;8.00;;;7.50;;
10489;SDS011;35569;48.402;10.670;2023-02-08T02:48:30;7.40;;;7.00;;
10489;SDS011;35569;48.402;10.670;2023-02-08T02:49:05;7.35;;;6.95;;
10489;SDS011;35569;48.402;10.670;2023-02-08T02:49:43;7.80;;;7.22;;
10489;SDS011;35569;48.402;10.670;2023-02-08T02:50:22;7.53;;;7.03;;
10489;SDS011;35569;48.402;10.670;2023-02-08T02:50:57;9.15;;;7.60;;
10489;SDS011;35569;48.402;10.670;2023-02-08T02:51:32;8.65;;;7.95;;
10489;SDS011;35569;48.402;10.670;2023-02-08T02:52:10;7.68;;;7.22;;
10489;SDS011;35569;48.402;10.670;2023-02-08T02:52:44;8.45;;;7.85;;
10489;SDS011;35569;48.402;10.670;2023-02-08T02:53:20;7.47;;;7.07;;
10489;SDS011;35569;48.402;10.670;2023-02-08T02:53:58;8.40;;;7.80;;
10489;SDS011;35569;48.402;10.670;2023-02-08T02:54:33;7.80;;;7.30;;
10489;SDS011;35569;48.402;10.670;2023-02-08T02:55:09;8.13;;;7.63;;
10489;SDS011;35569;48.402;10.670;2023-02-08T02:55:47;8.05;;;7.50;;
10489;SDS011;35569;48.402;10.670;2023-02-08T02:56:23;8.23;;;7.70;;
10489;SDS011;35569;48.402;10.670;2023-02-08T02:56:59;8.13;;;7.43;;
10489;SDS011;35569;48.402;10.670;2023-02-08T02:57:36;7.85;;;7.25;;
10489;SDS011;35569;48.402;10.670;2023-02-08T02:58:09;7.75;;;7.25;;
10489;SDS011;35569;48.402;10.670;2023-02-08T02:58:43;8.15;;;7.65;;
10489;SDS011;35569;48.402;10.670;2023-02-08T02:59:18;7.28;;;6.78;;
10489;SDS011;35569;48.402;10.670;2023-02-08T02:59:51;8.50;;;7.90;;
10489;SDS011;35569;48.402;10.670;2023-02-08T03:00:23;7.85;;;7.35;;
10489;SDS011;35569;48.402;10.670;2023-02-08T03:00:59;8.10;;;7.60;;
10489;SDS011;35569;48.402;10.670;2023-02-08T03:01:35;7.85;;;7.32;;
10489;SDS011;35569;48.402;10.670;2023-02-08T03:02:08;8.52;;;7.72;;
10489;SDS011;35569;48.402;10.670;2023-02-08T03:02:43;7.93;;;7.32;;
10489;SDS011;35569;48.402;10.670;2023-02-08T03:03:15;7.78;;;7.25;;
10489;SDS011;35569;48.402;10.670;2023-02-08T03:03:52;7.78;;;7.28;;
10489;SDS011;35569;48.402;10.670;2023-02-08T03:05:24;7.80;;;7.20;;
10489;SDS011;35569;48.402;10.670;2023-02-08T03:06:02;7.93;;;7.43;;
10489;SDS011;35569;48.402;10.670;2023-02-08T03:06:40;8.05;;;7.50;;
10489;SDS011;35569;48.402;10.670;2023-02-08T03:07:37;7.90;;;7.35;;
10489;SDS011;35569;48.402;10.670;2023-02-08T03:08:28;8.50;;;8.00;;
10489;SDS011;35569;48.402;10.670;2023-02-08T03:09:31;8.35;;;7.75;;
10489;SDS011;35569;48.402;10.670;2023-02-08T03:11:15;7.78;;;7.28;;
10489;SDS011;35569;48.402;10.670;2023-02-08T03:11:53;7.95;;;7.35;;
10489;SDS011;35569;48.402;10.670;2023-02-08T03:12:29;7.25;;;6.85;;
10489;SDS011;35569;48.402;10.670;2023-02-08T03:13:09;8.00;;;7.45;;
10489;SDS011;35569;48.402;10.670;2023-02-08T03:14:25;8.52;;;7.82;;
10489;SDS011;35569;48.402;10.670;2023-02-08T03:15:23;8.35;;;7.68;;
10489;SDS011;35569;48.402;10.670;2023-02-08T03:16:25;8.35;;;7.75;;
10489;SDS011;35569;48.402;10.670;2023-02-08T03:17:31;8.10;;;7.63;;
10489;SDS011;35569;48.402;10.670;2023-02-08T03:18:29;8.82;;;8.10;;
10489;SDS011;35569;48.402;10.670;2023-02-08T03:19:27;8.68;;;7.97;;
10489;SDS011;35569;48.402;10.670;2023-02-08T03:20:26;7.70;;;7.20;;
10489;SDS011;35569;48.402;10.670;2023-02-08T03:21:23;8.20;;;7.60;;
10489;SDS011;35569;48.402;10.670;2023-02-08T03:22:25;8.55;;;8.05;;
10489;SDS011;35569;48.402;10.670;2023-02-08T03:23:25;7.63;;;7.13;;
10489;SDS011;35569;48.402;10.670;2023-02-08T03:24:24;8.27;;;7.68;;
10489;SDS011;35569;48.402;10.670;2023-02-08T03:25:21;7.88;;;7.38;;
10489;SDS011;35569;48.402;10.670;2023-02-08T03:26:13;8.88;;;8.18;;
10489;SDS011;35569;48.402;10.670;2023-02-08T03:26:49;7.60;;;7.15;;
10489;SDS011;35569;48.402;10.670;2023-02-08T03:27:27;8.30;;;7.60;;
10489;SDS011;35569;48.402;10.670;2023-02-08T03:28:06;7.90;;;7.40;;
10489;SDS011;35569;48.402;10.670;2023-02-08T03:28:43;8.02;;;7.43;;
10489;SDS011;35569;48.402;10.670;2023-02-08T03:29:21;8.75;;;8.13;;
10489;SDS011;35569;48.402;10.670;2023-02-08T03:30:01;7.32;;;6.82;;
10489;SDS011;35569;48.402;10.670;2023-02-08T03:30:36;7.38;;;6.95;;
10489;SDS011;35569;48.402;10.670;2023-02-08T03:31:18;7.60;;;7.10;;
10489;SDS011;35569;48.402;10.670;2023-02-08T03:31:57;8.13;;;7.38;;
10489;SDS011;35569;48.402;10.670;2023-02-08T03:32:35;7.90;;;7.40;;
10489;SDS011;35569;48.402;10.670;2023-02-08T03:33:13;7.88;;;7.38;;
10489;SDS011;35569;48.402;10.670;2023-02-08T03:33:48;8.73;;;8.13;;
10489;SDS011;35569;48.402;10.670;2023-02-08T03:34:25;8.18;;;7.65;;
10489;SDS011;35569;48.402;10.670;2023-02-08T03:35:04;7.32;;;6.93;;
10489;SDS011;35569;48.402;10.670;2023-02-08T03:35:41;7.60;;;7.00;;
10489;SDS011;35569;48.402;10.670;2023-02-08T03:36:19;8.32;;;7.78;;
10489;SDS011;35569;48.402;10.670;2023-02-08T03:36:54;8.35;;;7.75;;
10489;SDS011;35569;48.402;10.670;2023-02-08T03:37:29;8.10;;;7.50;;
10489;SDS011;35569;48.402;10.670;2023-02-08T03:38:07;8.70;;;8.10;;
10489;SDS011;35569;48.402;10.670;2023-02-08T03:38:42;7.97;;;7.38;;
10489;SDS011;35569;48.402;10.670;2023-02-08T03:39:16;7.75;;;7.18;;
10489;SDS011;35569;48.402;10.670;2023-02-08T03:39:54;7.80;;;7.20;;
10489;SDS011;35569;48.402;10.670;2023-02-08T03:40:30;8.68;;;8.05;;
10489;SDS011;35569;48.402;10.670;2023-02-08T03:41:06;8.27;;;7.78;;
10489;SDS011;35569;48.402;10.670;2023-02-08T03:41:43;7.65;;;7.25;;
10489;SDS011;35569;48.402;10.670;2023-02-08T03:42:18;8.40;;;7.70;;
10489;SDS011;35569;48.402;10.670;2023-02-08T03:42:53;8.00;;;7.50;;
10489;SDS011;35569;48.402;10.670;2023-02-08T03:43:32;8.90;;;8.20;;
10489;SDS011;35569;48.402;10.670;2023-02-08T03:44:08;7.80;;;7.20;;